FMNM/MJN METAR and TAF weather

Enter ICAO airport designator
Station Type Date Time Source
FMNM METAR 2022/01/28 00:00 UTC NOAA

FMNM 280000Z 14004KT 110V170 9999 FEW020TCU 24/23 Q1009


Station Type Date Time Source
FMNM Decoded METAR 2022/01/28 00:00 UTC NOAA

Majunga, Madagascar (FMNM) 15-40S 046-21E 18M
Jan 27, 2022 - 07:00 PM EST / 2022.01.28 0000 UTC
Wind: from the SE (140 degrees) at 5 MPH (4 KT) (direction variable):0
Visibility: greater than 7 mile(s):0
Sky conditions: mostly clear
Weather: Towering cumulus clouds observed
Temperature: 75 F (24 C)
Dew Point: 73 F (23 C)
Relative Humidity: 94%
Pressure (altimeter): 29.80 in. Hg (1009 hPa)
ob: FMNM 280000Z 14004KT 110V170 9999 FEW020TCU 24/23 Q1009
cycle: 0

Station Type Date Time Source
FMNM TAF 2022/01/27 18:05 UTC NOAA

TAF FMNM 271700Z 2718/2818 26010KT 9999 SCT020
BECMG 2719/2721 08005KT PROB30
TEMPO 2800/2806 4000 SHRA
BECMG 2807/2809 30010KT

Example: see airport list